Main page
METAR-TAF:

METAR-TAF

Airports :

Shiraz International Airport

Shiraz, Iran

latitude: 29-32N, longitude: 052-35E, elevation: 1486 m

Current weather observation

The report was made 16 minutes ago, at 16:00 UTC
Wind 6 kt from the Southeast
Temperature 29°C
Humidity 6%
Pressure 1011 hPa
Visibility 10 km or more
no clouds below 1500 m and no cumulonimbus

METAR: OISS 231600Z 14006KT CAVOK 29/M13 Q1010 A2985

Time: 20:46 (16:16 UTC)

Forecast

The report was made 4 hours and 46 minutes ago, at 11:30 UTC
Forecast valid from 23 at 12 UTC to 24 at 18 UTC
Wind 6 kt from the South/Southwest
Visibility: 7000 m

TAF: OISS 231130Z 2312/2418 21003MPS 7000 NSC

Weather observations and forecasts of more than 4000 airports (METAR and TAF reports).

The available stations are represented by yellow and red dots on the map.

Hover mouse over dot to see the name of the station.

Then click to see weather observations and forecasts.

To change the map : click on the green buttons with a black cross to zoom in, on the green button with a dash to zoom out, or on the green arrows for adjacent maps.


METAR-TAF: